sensor_id;sensor_type;location;lat;lon;timestamp;temperature;humidity
21849;DHT22;11089;49.852;19.700;2023-03-14T00:01:30;11.70;99.90
21849;DHT22;11089;49.852;19.700;2023-03-14T00:04:31;11.70;99.90
21849;DHT22;11089;49.852;19.700;2023-03-14T00:07:37;11.70;99.90
21849;DHT22;11089;49.852;19.700;2023-03-14T00:10:38;11.70;99.90
21849;DHT22;11089;49.852;19.700;2023-03-14T00:13:39;11.70;99.90
21849;DHT22;11089;49.852;19.700;2023-03-14T00:16:40;11.70;99.90
21849;DHT22;11089;49.852;19.700;2023-03-14T00:19:41;11.70;99.90
21849;DHT22;11089;49.852;19.700;2023-03-14T00:22:42;11.70;99.90
21849;DHT22;11089;49.852;19.700;2023-03-14T00:25:43;11.90;99.90
21849;DHT22;11089;49.852;19.700;2023-03-14T00:28:44;11.90;99.90
21849;DHT22;11089;49.852;19.700;2023-03-14T00:31:45;11.80;99.90
21849;DHT22;11089;49.852;19.700;2023-03-14T00:34:46;11.70;99.90
21849;DHT22;11089;49.852;19.700;2023-03-14T00:37:47;11.50;99.90
21849;DHT22;11089;49.852;19.700;2023-03-14T00:40:48;11.30;99.90
21849;DHT22;11089;49.852;19.700;2023-03-14T00:43:49;11.40;99.90
21849;DHT22;11089;49.852;19.700;2023-03-14T00:46:50;11.20;99.90
21849;DHT22;11089;49.852;19.700;2023-03-14T00:49:51;11.20;99.90
21849;DHT22;11089;49.852;19.700;2023-03-14T00:52:52;11.10;99.90
21849;DHT22;11089;49.852;19.700;2023-03-14T00:55:53;11.00;99.90
21849;DHT22;11089;49.852;19.700;2023-03-14T00:58:55;11.10;99.90
21849;DHT22;11089;49.852;19.700;2023-03-14T01:01:56;11.30;99.90
21849;DHT22;11089;49.852;19.700;2023-03-14T01:04:57;11.20;99.90
21849;DHT22;11089;49.852;19.700;2023-03-14T01:07:58;11.10;99.90
21849;DHT22;11089;49.852;19.700;2023-03-14T01:10:59;11.20;99.90
21849;DHT22;11089;49.852;19.700;2023-03-14T01:14:01;11.10;99.90
21849;DHT22;11089;49.852;19.700;2023-03-14T01:17:02;11.30;99.90
21849;DHT22;11089;49.852;19.700;2023-03-14T01:20:04;11.40;99.90
21849;DHT22;11089;49.852;19.700;2023-03-14T01:23:07;11.40;99.90
21849;DHT22;11089;49.852;19.700;2023-03-14T01:26:10;11.30;99.90
21849;DHT22;11089;49.852;19.700;2023-03-14T01:29:11;11.60;99.90
21849;DHT22;11089;49.852;19.700;2023-03-14T01:32:13;11.70;99.90
21849;DHT22;11089;49.852;19.700;2023-03-14T01:35:15;11.60;99.90
21849;DHT22;11089;49.852;19.700;2023-03-14T01:38:16;11.50;99.90
21849;DHT22;11089;49.852;19.700;2023-03-14T01:41:23;11.50;99.90
21849;DHT22;11089;49.852;19.700;2023-03-14T01:44:24;11.30;99.90
21849;DHT22;11089;49.852;19.700;2023-03-14T01:47:26;11.70;99.90
21849;DHT22;11089;49.852;19.700;2023-03-14T01:50:27;11.40;99.90
21849;DHT22;11089;49.852;19.700;2023-03-14T01:53:29;11.30;99.90
21849;DHT22;11089;49.852;19.700;2023-03-14T01:56:31;11.10;99.90
21849;DHT22;11089;49.852;19.700;2023-03-14T01:59:32;11.20;99.90
21849;DHT22;11089;49.852;19.700;2023-03-14T02:02:34;11.10;99.90
21849;DHT22;11089;49.852;19.700;2023-03-14T02:05:38;11.00;99.90
21849;DHT22;11089;49.852;19.700;2023-03-14T02:08:40;11.00;99.90
21849;DHT22;11089;49.852;19.700;2023-03-14T02:11:41;10.90;99.90
21849;DHT22;11089;49.852;19.700;2023-03-14T02:14:42;10.90;99.90
21849;DHT22;11089;49.852;19.700;2023-03-14T02:17:48;10.80;99.90
21849;DHT22;11089;49.852;19.700;2023-03-14T02:27:33;10.80;1.00
21849;DHT22;11089;49.852;19.700;2023-03-14T02:30:34;10.60;1.00
21849;DHT22;11089;49.852;19.700;2023-03-14T02:33:37;10.40;1.00
21849;DHT22;11089;49.852;19.700;2023-03-14T02:36:39;10.50;1.00
21849;DHT22;11089;49.852;19.700;2023-03-14T02:39:43;10.60;1.00
21849;DHT22;11089;49.852;19.700;2023-03-14T02:42:45;10.80;1.00
21849;DHT22;11089;49.852;19.700;2023-03-14T02:45:48;10.90;1.00
21849;DHT22;11089;49.852;19.700;2023-03-14T02:49:01;10.90;1.00
21849;DHT22;11089;49.852;19.700;2023-03-14T02:52:02;11.20;1.00
21849;DHT22;11089;49.852;19.700;2023-03-14T02:55:04;11.20;99.90
21849;DHT22;11089;49.852;19.700;2023-03-14T02:58:05;11.20;99.90
21849;DHT22;11089;49.852;19.700;2023-03-14T03:01:06;11.10;99.90
21849;DHT22;11089;49.852;19.700;2023-03-14T03:04:07;10.80;1.00
21849;DHT22;11089;49.852;19.700;2023-03-14T03:07:08;10.80;1.00
21849;DHT22;11089;49.852;19.700;2023-03-14T03:10:09;10.70;1.00
21849;DHT22;11089;49.852;19.700;2023-03-14T03:13:10;10.60;1.00
21849;DHT22;11089;49.852;19.700;2023-03-14T03:16:11;10.50;1.00
21849;DHT22;11089;49.852;19.700;2023-03-14T03:19:14;10.40;1.00
21849;DHT22;11089;49.852;19.700;2023-03-14T03:22:16;10.40;1.00
21849;DHT22;11089;49.852;19.700;2023-03-14T03:25:17;10.30;1.00
21849;DHT22;11089;49.852;19.700;2023-03-14T03:28:18;10.30;1.00
21849;DHT22;11089;49.852;19.700;2023-03-14T03:31:20;10.30;1.00
21849;DHT22;11089;49.852;19.700;2023-03-14T03:34:20;10.20;1.00
21849;DHT22;11089;49.852;19.700;2023-03-14T03:37:21;10.10;1.00
21849;DHT22;11089;49.852;19.700;2023-03-14T03:40:22;10.20;1.00
21849;DHT22;11089;49.852;19.700;2023-03-14T03:43:23;10.20;1.00
21849;DHT22;11089;49.852;19.700;2023-03-14T03:46:24;10.70;1.00
21849;DHT22;11089;49.852;19.700;2023-03-14T03:49:29;10.10;1.00
21849;DHT22;11089;49.852;19.700;2023-03-14T03:52:30;10.30;1.00
21849;DHT22;11089;49.852;19.700;2023-03-14T03:55:31;10.10;1.00
21849;DHT22;11089;49.852;19.700;2023-03-14T03:58:32;10.40;1.00
21849;DHT22;11089;49.852;19.700;2023-03-14T04:01:33;9.90;1.00
21849;DHT22;11089;49.852;19.700;2023-03-14T04:04:34;9.80;1.00
21849;DHT22;11089;49.852;19.700;2023-03-14T04:07:35;10.30;1.00
21849;DHT22;11089;49.852;19.700;2023-03-14T04:10:36;10.00;1.00
21849;DHT22;11089;49.852;19.700;2023-03-14T04:13:37;10.00;1.00
21849;DHT22;11089;49.852;19.700;2023-03-14T04:16:38;9.40;1.00
21849;DHT22;11089;49.852;19.700;2023-03-14T04:19:39;10.40;1.00
21849;DHT22;11089;49.852;19.700;2023-03-14T04:22:40;10.80;25.60
21849;DHT22;11089;49.852;19.700;2023-03-14T04:25:41;10.50;6.10
21849;DHT22;11089;49.852;19.700;2023-03-14T04:28:42;9.70;1.00
21849;DHT22;11089;49.852;19.700;2023-03-14T04:31:43;10.30;1.00
21849;DHT22;11089;49.852;19.700;2023-03-14T04:34:44;9.80;1.00
21849;DHT22;11089;49.852;19.700;2023-03-14T04:37:45;10.00;3.50
21849;DHT22;11089;49.852;19.700;2023-03-14T04:40:49;10.30;54.60
21849;DHT22;11089;49.852;19.700;2023-03-14T04:43:50;9.70;29.70
21849;DHT22;11089;49.852;19.700;2023-03-14T04:46:51;9.50;49.10
21849;DHT22;11089;49.852;19.700;2023-03-14T04:49:52;9.30;1.00
21849;DHT22;11089;49.852;19.700;2023-03-14T04:52:53;9.90;36.50
21849;DHT22;11089;49.852;19.700;2023-03-14T04:55:55;9.60;99.90
21849;DHT22;11089;49.852;19.700;2023-03-14T04:58:56;9.30;1.00
21849;DHT22;11089;49.852;19.700;2023-03-14T05:01:57;10.10;99.90
21849;DHT22;11089;49.852;19.700;2023-03-14T05:04:58;9.40;99.90
21849;DHT22;11089;49.852;19.700;2023-03-14T05:07:59;8.90;1.00
21849;DHT22;11089;49.852;19.700;2023-03-14T05:11:00;9.80;99.90
21849;DHT22;11089;49.852;19.700;2023-03-14T05:14:01;9.60;99.90
21849;DHT22;11089;49.852;19.700;2023-03-14T05:17:02;9.10;1.00
21849;DHT22;11089;49.852;19.700;2023-03-14T05:20:03;9.10;1.00
21849;DHT22;11089;49.852;19.700;2023-03-14T05:23:13;9.00;1.00
21849;DHT22;11089;49.852;19.700;2023-03-14T05:26:14;8.50;99.90
21849;DHT22;11089;49.852;19.700;2023-03-14T05:29:17;8.50;99.90
21849;DHT22;11089;49.852;19.700;2023-03-14T05:32:18;10.10;10.90
21849;DHT22;11089;49.852;19.700;2023-03-14T05:35:19;10.30;1.00
21849;DHT22;11089;49.852;19.700;2023-03-14T05:38:20;10.50;1.00
21849;DHT22;11089;49.852;19.700;2023-03-14T05:41:22;10.40;1.00
21849;DHT22;11089;49.852;19.700;2023-03-14T05:44:23;10.20;1.00
21849;DHT22;11089;49.852;19.700;2023-03-14T05:47:24;10.40;1.00
21849;DHT22;11089;49.852;19.700;2023-03-14T05:50:26;10.60;1.00
21849;DHT22;11089;49.852;19.700;2023-03-14T05:53:26;10.50;1.00
21849;DHT22;11089;49.852;19.700;2023-03-14T05:56:29;11.00;1.00
21849;DHT22;11089;49.852;19.700;2023-03-14T05:59:30;10.80;1.00
21849;DHT22;11089;49.852;19.700;2023-03-14T06:02:31;11.00;1.00
21849;DHT22;11089;49.852;19.700;2023-03-14T06:05:32;11.00;1.00
21849;DHT22;11089;49.852;19.700;2023-03-14T06:08:33;10.90;1.00
21849;DHT22;11089;49.852;19.700;2023-03-14T06:11:35;11.20;1.00
21849;DHT22;11089;49.852;19.700;2023-03-14T06:14:36;11.20;1.00
21849;DHT22;11089;49.852;19.700;2023-03-14T06:17:36;11.10;1.00
21849;DHT22;11089;49.852;19.700;2023-03-14T06:20:38;11.20;1.00
21849;DHT22;11089;49.852;19.700;2023-03-14T06:23:42;11.20;1.00
21849;DHT22;11089;49.852;19.700;2023-03-14T06:26:43;10.80;1.00
21849;DHT22;11089;49.852;19.700;2023-03-14T06:29:44;11.30;1.00
21849;DHT22;11089;49.852;19.700;2023-03-14T06:32:45;10.40;1.00
21849;DHT22;11089;49.852;19.700;2023-03-14T06:35:46;10.30;99.90
21849;DHT22;11089;49.852;19.700;2023-03-14T06:38:47;10.60;92.20
21849;DHT22;11089;49.852;19.700;2023-03-14T06:41:48;10.40;58.20
21849;DHT22;11089;49.852;19.700;2023-03-14T06:44:49;11.00;99.90
21849;DHT22;11089;49.852;19.700;2023-03-14T06:47:50;11.50;99.90
21849;DHT22;11089;49.852;19.700;2023-03-14T06:50:51;11.60;99.90
21849;DHT22;11089;49.852;19.700;2023-03-14T06:53:52;10.70;99.90
21849;DHT22;11089;49.852;19.700;2023-03-14T06:56:53;11.20;99.90
21849;DHT22;11089;49.852;19.700;2023-03-14T06:59:54;11.60;99.90
21849;DHT22;11089;49.852;19.700;2023-03-14T07:02:54;11.30;99.90
21849;DHT22;11089;49.852;19.700;2023-03-14T07:05:56;11.50;99.90
21849;DHT22;11089;49.852;19.700;2023-03-14T07:08:57;10.90;99.90
21849;DHT22;11089;49.852;19.700;2023-03-14T07:11:58;11.00;99.90
21849;DHT22;11089;49.852;19.700;2023-03-14T07:14:59;11.70;99.90
21849;DHT22;11089;49.852;19.700;2023-03-14T07:18:00;12.10;99.90
21849;DHT22;11089;49.852;19.700;2023-03-14T07:21:01;11.80;99.90
21849;DHT22;11089;49.852;19.700;2023-03-14T07:24:02;12.30;99.90
21849;DHT22;11089;49.852;19.700;2023-03-14T07:27:03;11.80;99.90
21849;DHT22;11089;49.852;19.700;2023-03-14T07:30:04;11.70;1.00
21849;DHT22;11089;49.852;19.700;2023-03-14T07:33:06;11.70;1.00
21849;DHT22;11089;49.852;19.700;2023-03-14T07:36:07;12.40;9.70
21849;DHT22;11089;49.852;19.700;2023-03-14T07:39:08;12.80;1.00
21849;DHT22;11089;49.852;19.700;2023-03-14T07:42:09;13.20;1.00
21849;DHT22;11089;49.852;19.700;2023-03-14T07:45:11;13.60;1.00
21849;DHT22;11089;49.852;19.700;2023-03-14T07:48:12;12.60;1.00
21849;DHT22;11089;49.852;19.700;2023-03-14T07:51:13;13.30;1.00
21849;DHT22;11089;49.852;19.700;2023-03-14T07:54:14;13.20;1.00
21849;DHT22;11089;49.852;19.700;2023-03-14T07:57:15;13.80;1.00
21849;DHT22;11089;49.852;19.700;2023-03-14T08:00:17;13.20;99.90
21849;DHT22;11089;49.852;19.700;2023-03-14T08:03:18;13.20;99.90
21849;DHT22;11089;49.852;19.700;2023-03-14T08:06:19;13.90;1.00
21849;DHT22;11089;49.852;19.700;2023-03-14T08:09:20;13.30;99.90
21849;DHT22;11089;49.852;19.700;2023-03-14T08:12:21;13.30;99.90
21849;DHT22;11089;49.852;19.700;2023-03-14T08:15:23;13.40;13.40
21849;DHT22;11089;49.852;19.700;2023-03-14T08:18:24;14.00;99.90
21849;DHT22;11089;49.852;19.700;2023-03-14T08:21:25;13.50;99.90
21849;DHT22;11089;49.852;19.700;2023-03-14T08:24:26;13.60;99.90
21849;DHT22;11089;49.852;19.700;2023-03-14T08:27:27;14.40;99.90
21849;DHT22;11089;49.852;19.700;2023-03-14T08:30:28;13.70;99.90
21849;DHT22;11089;49.852;19.700;2023-03-14T08:33:29;14.40;99.90
21849;DHT22;11089;49.852;19.700;2023-03-14T08:36:31;13.30;99.90
21849;DHT22;11089;49.852;19.700;2023-03-14T08:39:31;13.60;99.90
21849;DHT22;11089;49.852;19.700;2023-03-14T08:42:33;13.70;99.90
21849;DHT22;11089;49.852;19.700;2023-03-14T08:45:34;13.80;99.90
21849;DHT22;11089;49.852;19.700;2023-03-14T08:48:35;14.00;99.90
21849;DHT22;11089;49.852;19.700;2023-03-14T08:51:36;14.00;99.90
21849;DHT22;11089;49.852;19.700;2023-03-14T08:54:37;14.10;99.90
21849;DHT22;11089;49.852;19.700;2023-03-14T08:57:38;14.00;99.90
21849;DHT22;11089;49.852;19.700;2023-03-14T09:00:39;13.90;99.90
21849;DHT22;11089;49.852;19.700;2023-03-14T09:03:40;13.80;99.90
21849;DHT22;11089;49.852;19.700;2023-03-14T09:06:41;13.70;99.90
21849;DHT22;11089;49.852;19.700;2023-03-14T09:09:42;13.80;99.90
21849;DHT22;11089;49.852;19.700;2023-03-14T09:12:43;13.90;99.90
21849;DHT22;11089;49.852;19.700;2023-03-14T09:15:44;13.90;99.90
21849;DHT22;11089;49.852;19.700;2023-03-14T09:18:45;14.00;99.90
21849;DHT22;11089;49.852;19.700;2023-03-14T09:21:46;14.20;99.90
21849;DHT22;11089;49.852;19.700;2023-03-14T09:24:47;14.60;99.90
21849;DHT22;11089;49.852;19.700;2023-03-14T09:27:48;14.90;99.90
21849;DHT22;11089;49.852;19.700;2023-03-14T09:30:49;14.70;99.90
21849;DHT22;11089;49.852;19.700;2023-03-14T09:33:50;14.60;99.90
21849;DHT22;11089;49.852;19.700;2023-03-14T09:36:51;14.50;99.90
21849;DHT22;11089;49.852;19.700;2023-03-14T09:39:52;14.50;99.90
21849;DHT22;11089;49.852;19.700;2023-03-14T09:42:54;15.20;99.90
21849;DHT22;11089;49.852;19.700;2023-03-14T09:45:57;15.30;99.90
21849;DHT22;11089;49.852;19.700;2023-03-14T09:48:59;15.80;99.90
21849;DHT22;11089;49.852;19.700;2023-03-14T09:52:15;17.00;99.90
21849;DHT22;11089;49.852;19.700;2023-03-14T09:55:19;16.70;99.90
21849;DHT22;11089;49.852;19.700;2023-03-14T09:58:23;17.10;99.90
21849;DHT22;11089;49.852;19.700;2023-03-14T10:01:27;18.60;99.90
21849;DHT22;11089;49.852;19.700;2023-03-14T10:04:29;19.10;99.90
21849;DHT22;11089;49.852;19.700;2023-03-14T10:07:32;21.10;99.90
21849;DHT22;11089;49.852;19.700;2023-03-14T10:10:33;22.50;99.90
21849;DHT22;11089;49.852;19.700;2023-03-14T10:13:34;23.00;99.90
21849;DHT22;11089;49.852;19.700;2023-03-14T10:16:37;20.00;99.90
21849;DHT22;11089;49.852;19.700;2023-03-14T10:19:55;18.20;99.90
21849;DHT22;11089;49.852;19.700;2023-03-14T10:22:56;16.60;99.90
21849;DHT22;11089;49.852;19.700;2023-03-14T10:26:12;16.10;99.90
21849;DHT22;11089;49.852;19.700;2023-03-14T10:29:13;15.80;99.90
21849;DHT22;11089;49.852;19.700;2023-03-14T10:32:20;15.40;99.90
21849;DHT22;11089;49.852;19.700;2023-03-14T10:35:22;15.20;99.90
21849;DHT22;11089;49.852;19.700;2023-03-14T10:38:27;15.10;99.90
21849;DHT22;11089;49.852;19.700;2023-03-14T10:41:31;15.10;99.90
21849;DHT22;11089;49.852;19.700;2023-03-14T10:44:34;15.00;99.90
21849;DHT22;11089;49.852;19.700;2023-03-14T10:47:36;14.90;99.90
21849;DHT22;11089;49.852;19.700;2023-03-14T10:54:14;14.90;99.90
21849;DHT22;11089;49.852;19.700;2023-03-14T10:57:20;14.80;99.90
21849;DHT22;11089;49.852;19.700;2023-03-14T11:00:23;14.80;99.90
21849;DHT22;11089;49.852;19.700;2023-03-14T11:03:24;14.60;99.90
21849;DHT22;11089;49.852;19.700;2023-03-14T11:06:36;14.50;99.90
21849;DHT22;11089;49.852;19.700;2023-03-14T11:16:26;14.50;99.90
21849;DHT22;11089;49.852;19.700;2023-03-14T11:19:41;14.50;99.90
21849;DHT22;11089;49.852;19.700;2023-03-14T11:22:55;14.50;99.90
21849;DHT22;11089;49.852;19.700;2023-03-14T11:33:08;14.50;99.90
21849;DHT22;11089;49.852;19.700;2023-03-14T11:36:08;14.60;99.90
21849;DHT22;11089;49.852;19.700;2023-03-14T11:39:15;14.80;99.90
21849;DHT22;11089;49.852;19.700;2023-03-14T11:42:17;14.70;99.90
21849;DHT22;11089;49.852;19.700;2023-03-14T11:45:26;14.70;99.90
21849;DHT22;11089;49.852;19.700;2023-03-14T11:51:57;14.60;99.90
21849;DHT22;11089;49.852;19.700;2023-03-14T11:55:19;14.50;99.90
21849;DHT22;11089;49.852;19.700;2023-03-14T11:58:33;14.50;99.90
21849;DHT22;11089;49.852;19.700;2023-03-14T12:08:39;14.40;99.90
21849;DHT22;11089;49.852;19.700;2023-03-14T12:11:59;14.40;99.90
21849;DHT22;11089;49.852;19.700;2023-03-14T12:15:03;14.40;99.90
21849;DHT22;11089;49.852;19.700;2023-03-14T12:21:46;14.30;99.90
21849;DHT22;11089;49.852;19.700;2023-03-14T12:24:52;14.30;99.90
21849;DHT22;11089;49.852;19.700;2023-03-14T12:30:55;14.20;99.90
21849;DHT22;11089;49.852;19.700;2023-03-14T12:37:46;14.20;99.90
21849;DHT22;11089;49.852;19.700;2023-03-14T12:41:03;14.10;99.90
21849;DHT22;11089;49.852;19.700;2023-03-14T12:50:42;14.00;99.90
21849;DHT22;11089;49.852;19.700;2023-03-14T12:53:47;14.00;99.90
21849;DHT22;11089;49.852;19.700;2023-03-14T12:57:08;14.00;99.90
21849;DHT22;11089;49.852;19.700;2023-03-14T13:00:23;13.90;99.90
21849;DHT22;11089;49.852;19.700;2023-03-14T13:06:57;13.80;99.90
21849;DHT22;11089;49.852;19.700;2023-03-14T13:13:21;13.70;1.00
21849;DHT22;11089;49.852;19.700;2023-03-14T13:16:23;13.70;1.00
21849;DHT22;11089;49.852;19.700;2023-03-14T13:19:26;13.60;1.00
21849;DHT22;11089;49.852;19.700;2023-03-14T13:22:31;13.60;1.00
21849;DHT22;11089;49.852;19.700;2023-03-14T13:25:35;13.50;1.00
21849;DHT22;11089;49.852;19.700;2023-03-14T13:28:36;13.50;1.00
21849;DHT22;11089;49.852;19.700;2023-03-14T13:31:44;13.40;1.00
21849;DHT22;11089;49.852;19.700;2023-03-14T13:34:46;13.40;1.00
21849;DHT22;11089;49.852;19.700;2023-03-14T13:37:55;13.30;1.00
21849;DHT22;11089;49.852;19.700;2023-03-14T13:40:58;13.30;1.00
21849;DHT22;11089;49.852;19.700;2023-03-14T13:44:12;13.30;1.00
21849;DHT22;11089;49.852;19.700;2023-03-14T13:47:17;13.20;1.00
21849;DHT22;11089;49.852;19.700;2023-03-14T13:50:18;13.10;1.00
21849;DHT22;11089;49.852;19.700;2023-03-14T13:53:20;13.10;1.00
21849;DHT22;11089;49.852;19.700;2023-03-14T13:56:24;13.00;1.00
21849;DHT22;11089;49.852;19.700;2023-03-14T13:59:30;13.00;1.00
21849;DHT22;11089;49.852;19.700;2023-03-14T14:02:32;13.00;1.00
21849;DHT22;11089;49.852;19.700;2023-03-14T14:05:34;13.00;1.00
21849;DHT22;11089;49.852;19.700;2023-03-14T14:08:40;12.90;1.00
21849;DHT22;11089;49.852;19.700;2023-03-14T14:14:48;12.80;1.00
21849;DHT22;11089;49.852;19.700;2023-03-14T14:18:02;12.80;1.00
21849;DHT22;11089;49.852;19.700;2023-03-14T14:21:04;12.90;1.00
21849;DHT22;11089;49.852;19.700;2023-03-14T14:24:11;12.80;1.00
21849;DHT22;11089;49.852;19.700;2023-03-14T14:27:16;12.70;1.00
21849;DHT22;11089;49.852;19.700;2023-03-14T14:33:21;12.70;1.00
21849;DHT22;11089;49.852;19.700;2023-03-14T14:36:25;12.60;1.00
21849;DHT22;11089;49.852;19.700;2023-03-14T14:39:27;12.70;1.00
21849;DHT22;11089;49.852;19.700;2023-03-14T14:42:30;12.60;1.00
21849;DHT22;11089;49.852;19.700;2023-03-14T14:45:34;12.60;1.00
21849;DHT22;11089;49.852;19.700;2023-03-14T14:48:38;12.60;1.00
21849;DHT22;11089;49.852;19.700;2023-03-14T14:51:49;12.60;1.00
21849;DHT22;11089;49.852;19.700;2023-03-14T14:54:57;12.60;17.20
21849;DHT22;11089;49.852;19.700;2023-03-14T14:58:18;12.50;1.00
21849;DHT22;11089;49.852;19.700;2023-03-14T15:01:23;12.50;1.00
21849;DHT22;11089;49.852;19.700;2023-03-14T15:04:25;12.50;1.00
21849;DHT22;11089;49.852;19.700;2023-03-14T15:07:26;12.50;23.80
21849;DHT22;11089;49.852;19.700;2023-03-14T15:10:27;12.30;99.90
21849;DHT22;11089;49.852;19.700;2023-03-14T15:13:28;12.40;99.90
21849;DHT22;11089;49.852;19.700;2023-03-14T15:16:30;12.20;99.90
21849;DHT22;11089;49.852;19.700;2023-03-14T15:19:32;12.20;99.90
21849;DHT22;11089;49.852;19.700;2023-03-14T15:22:33;12.20;99.90
21849;DHT22;11089;49.852;19.700;2023-03-14T15:25:34;12.20;99.90
21849;DHT22;11089;49.852;19.700;2023-03-14T15:28:35;12.20;99.90
21849;DHT22;11089;49.852;19.700;2023-03-14T15:31:36;12.10;99.90
21849;DHT22;11089;49.852;19.700;2023-03-14T15:34:37;12.10;1.00
21849;DHT22;11089;49.852;19.700;2023-03-14T15:37:38;12.10;1.00
21849;DHT22;11089;49.852;19.700;2023-03-14T15:40:40;12.00;1.00
21849;DHT22;11089;49.852;19.700;2023-03-14T15:43:41;11.90;1.00
21849;DHT22;11089;49.852;19.700;2023-03-14T15:46:42;11.80;99.90
21849;DHT22;11089;49.852;19.700;2023-03-14T15:49:43;11.70;1.00
21849;DHT22;11089;49.852;19.700;2023-03-14T15:52:45;11.50;99.90
21849;DHT22;11089;49.852;19.700;2023-03-14T15:55:46;11.50;1.00
21849;DHT22;11089;49.852;19.700;2023-03-14T15:58:47;11.40;1.00
21849;DHT22;11089;49.852;19.700;2023-03-14T16:01:48;11.30;65.30
21849;DHT22;11089;49.852;19.700;2023-03-14T16:04:49;11.30;1.00
21849;DHT22;11089;49.852;19.700;2023-03-14T16:07:50;11.10;99.90
21849;DHT22;11089;49.852;19.700;2023-03-14T16:10:51;11.20;1.00
21849;DHT22;11089;49.852;19.700;2023-03-14T16:13:52;11.10;99.90
21849;DHT22;11089;49.852;19.700;2023-03-14T16:16:53;11.10;99.90
21849;DHT22;11089;49.852;19.700;2023-03-14T16:19:55;11.00;1.00
21849;DHT22;11089;49.852;19.700;2023-03-14T16:22:56;11.00;1.00
21849;DHT22;11089;49.852;19.700;2023-03-14T16:25:57;10.80;1.00
21849;DHT22;11089;49.852;19.700;2023-03-14T16:28:58;10.80;1.00
21849;DHT22;11089;49.852;19.700;2023-03-14T16:31:59;10.70;1.00
21849;DHT22;11089;49.852;19.700;2023-03-14T16:35:00;10.70;42.00
21849;DHT22;11089;49.852;19.700;2023-03-14T16:38:02;10.60;1.00
21849;DHT22;11089;49.852;19.700;2023-03-14T16:41:05;10.70;99.90
21849;DHT22;11089;49.852;19.700;2023-03-14T16:44:06;10.60;99.90
21849;DHT22;11089;49.852;19.700;2023-03-14T16:47:07;10.60;99.90
21849;DHT22;11089;49.852;19.700;2023-03-14T16:50:09;10.50;99.90
21849;DHT22;11089;49.852;19.700;2023-03-14T16:53:10;10.40;1.00
21849;DHT22;11089;49.852;19.700;2023-03-14T16:56:11;10.50;1.00
21849;DHT22;11089;49.852;19.700;2023-03-14T16:59:12;10.50;7.80
21849;DHT22;11089;49.852;19.700;2023-03-14T17:02:13;10.50;1.00
21849;DHT22;11089;49.852;19.700;2023-03-14T17:05:14;10.60;1.00
21849;DHT22;11089;49.852;19.700;2023-03-14T17:08:17;10.60;1.00
21849;DHT22;11089;49.852;19.700;2023-03-14T17:11:19;10.60;1.00
21849;DHT22;11089;49.852;19.700;2023-03-14T17:14:20;10.50;99.90
21849;DHT22;11089;49.852;19.700;2023-03-14T17:17:21;10.40;1.00
21849;DHT22;11089;49.852;19.700;2023-03-14T17:20:22;10.40;31.10
21849;DHT22;11089;49.852;19.700;2023-03-14T17:23:24;10.30;1.00
21849;DHT22;11089;49.852;19.700;2023-03-14T17:26:25;10.20;1.00
21849;DHT22;11089;49.852;19.700;2023-03-14T17:29:26;10.20;1.00
21849;DHT22;11089;49.852;19.700;2023-03-14T17:32:27;10.30;1.00
21849;DHT22;11089;49.852;19.700;2023-03-14T17:35:28;10.30;99.90
21849;DHT22;11089;49.852;19.700;2023-03-14T17:38:30;10.30;99.90
21849;DHT22;11089;49.852;19.700;2023-03-14T17:41:31;10.40;99.90
21849;DHT22;11089;49.852;19.700;2023-03-14T17:44:32;10.50;1.00
21849;DHT22;11089;49.852;19.700;2023-03-14T17:47:34;10.50;29.00
21849;DHT22;11089;49.852;19.700;2023-03-14T17:50:35;10.50;99.90
21849;DHT22;11089;49.852;19.700;2023-03-14T17:53:38;10.50;47.80
21849;DHT22;11089;49.852;19.700;2023-03-14T17:56:39;10.50;1.00
21849;DHT22;11089;49.852;19.700;2023-03-14T17:59:43;10.50;1.00
21849;DHT22;11089;49.852;19.700;2023-03-14T18:02:44;10.50;99.90
21849;DHT22;11089;49.852;19.700;2023-03-14T18:05:45;10.50;99.90
21849;DHT22;11089;49.852;19.700;2023-03-14T18:08:46;10.50;1.00
21849;DHT22;11089;49.852;19.700;2023-03-14T18:11:47;10.50;1.00
21849;DHT22;11089;49.852;19.700;2023-03-14T18:14:49;10.50;99.90
21849;DHT22;11089;49.852;19.700;2023-03-14T18:17:50;10.50;1.00
21849;DHT22;11089;49.852;19.700;2023-03-14T18:20:52;10.50;1.00
21849;DHT22;11089;49.852;19.700;2023-03-14T18:23:53;10.50;99.90
21849;DHT22;11089;49.852;19.700;2023-03-14T18:26:54;10.40;1.00
21849;DHT22;11089;49.852;19.700;2023-03-14T18:29:55;10.40;1.00
21849;DHT22;11089;49.852;19.700;2023-03-14T18:32:56;10.40;91.40
21849;DHT22;11089;49.852;19.700;2023-03-14T18:35:57;10.30;99.90
21849;DHT22;11089;49.852;19.700;2023-03-14T18:38:58;10.20;1.00
21849;DHT22;11089;49.852;19.700;2023-03-14T18:42:00;10.20;1.00
21849;DHT22;11089;49.852;19.700;2023-03-14T18:45:01;10.00;99.90
21849;DHT22;11089;49.852;19.700;2023-03-14T18:48:02;9.90;1.00
21849;DHT22;11089;49.852;19.700;2023-03-14T18:51:03;10.00;1.00
21849;DHT22;11089;49.852;19.700;2023-03-14T18:54:04;10.00;1.00
21849;DHT22;11089;49.852;19.700;2023-03-14T18:57:05;10.00;1.00
21849;DHT22;11089;49.852;19.700;2023-03-14T19:00:07;10.10;1.00
21849;DHT22;11089;49.852;19.700;2023-03-14T19:03:13;10.10;1.00
21849;DHT22;11089;49.852;19.700;2023-03-14T19:06:15;10.00;99.90
21849;DHT22;11089;49.852;19.700;2023-03-14T19:09:16;10.00;99.90
21849;DHT22;11089;49.852;19.700;2023-03-14T19:12:17;10.00;99.90
21849;DHT22;11089;49.852;19.700;2023-03-14T19:15:18;10.00;99.90
21849;DHT22;11089;49.852;19.700;2023-03-14T19:18:19;9.90;1.00
21849;DHT22;11089;49.852;19.700;2023-03-14T19:21:32;9.80;64.10
21849;DHT22;11089;49.852;19.700;2023-03-14T19:24:33;9.90;1.00
21849;DHT22;11089;49.852;19.700;2023-03-14T19:27:34;9.80;1.00
21849;DHT22;11089;49.852;19.700;2023-03-14T19:30:35;9.80;1.00
21849;DHT22;11089;49.852;19.700;2023-03-14T19:33:36;9.80;1.00
21849;DHT22;11089;49.852;19.700;2023-03-14T19:36:37;9.80;1.00
21849;DHT22;11089;49.852;19.700;2023-03-14T19:39:38;9.70;99.90
21849;DHT22;11089;49.852;19.700;2023-03-14T19:42:39;9.70;99.40
21849;DHT22;11089;49.852;19.700;2023-03-14T19:45:42;9.70;1.00
21849;DHT22;11089;49.852;19.700;2023-03-14T19:48:43;9.70;1.00
21849;DHT22;11089;49.852;19.700;2023-03-14T19:51:48;9.70;1.00
21849;DHT22;11089;49.852;19.700;2023-03-14T19:54:50;9.60;1.00
21849;DHT22;11089;49.852;19.700;2023-03-14T19:57:51;9.60;1.00
21849;DHT22;11089;49.852;19.700;2023-03-14T20:00:55;9.60;82.80
21849;DHT22;11089;49.852;19.700;2023-03-14T20:03:56;9.60;99.90
21849;DHT22;11089;49.852;19.700;2023-03-14T20:06:57;9.50;99.90
21849;DHT22;11089;49.852;19.700;2023-03-14T20:09:58;9.50;1.00